createdAt,value
2019-05-07T00:02:07.323Z,14.07
2019-05-07T00:04:36.834Z,12.47
2019-05-07T00:07:06.891Z,11.63
2019-05-07T00:09:36.559Z,12.30
2019-05-07T00:12:06.457Z,11.53
2019-05-07T00:14:36.183Z,11.07
2019-05-07T00:17:05.811Z,13.40
2019-05-07T00:19:35.298Z,14.47
2019-05-07T00:22:04.887Z,13.77
2019-05-07T00:24:34.415Z,13.80
2019-05-07T00:27:03.918Z,12.43
2019-05-07T00:29:33.424Z,13.63
2019-05-07T00:32:03.143Z,15.10
2019-05-07T00:34:34.285Z,16.83
2019-05-07T00:37:17.370Z,15.57
2019-05-07T00:39:57.344Z,13.23
2019-05-07T00:42:37.833Z,15.20
2019-05-07T00:45:20.069Z,10.70
2019-05-07T00:47:43.415Z,13.50
2019-05-07T00:50:17.681Z,13.37
2019-05-07T00:52:47.126Z,15.47
2019-05-07T00:55:16.597Z,16.60
2019-05-07T00:57:46.093Z,15.37
2019-05-07T01:00:15.886Z,12.87
2019-05-07T01:02:45.346Z,13.13
2019-05-07T01:05:14.909Z,12.33
2019-05-07T01:07:44.383Z,13.33
2019-05-07T01:10:14.002Z,10.00
2019-05-07T01:12:43.475Z,11.83
2019-05-07T01:15:27.135Z,10.37
2019-05-07T01:17:44.515Z,9.90
2019-05-07T01:20:14.115Z,13.37
2019-05-07T01:22:43.621Z,15.10
2019-05-07T01:25:13.380Z,13.50
2019-05-07T01:27:42.856Z,12.97
2019-05-07T01:30:13.046Z,15.23
2019-05-07T01:32:46.828Z,14.67
2019-05-07T01:35:17.950Z,12.87
2019-05-07T01:37:47.532Z,14.73
2019-05-07T01:40:17.046Z,14.87
2019-05-07T01:42:46.603Z,12.57
2019-05-07T01:45:16.875Z,12.77
2019-05-07T01:47:46.377Z,11.40
2019-05-07T01:50:16.058Z,13.37
2019-05-07T01:52:45.564Z,10.87
2019-05-07T01:55:15.360Z,12.70
2019-05-07T01:57:44.846Z,12.90
2019-05-07T02:00:14.665Z,11.87
2019-05-07T02:02:45.844Z,11.03
2019-05-07T02:05:19.647Z,10.30
2019-05-07T02:07:53.556Z,12.00
2019-05-07T02:10:24.681Z,11.33
2019-05-07T02:12:54.126Z,13.00
2019-05-07T02:15:23.670Z,14.23
2019-05-07T02:17:53.346Z,12.77
2019-05-07T02:20:22.826Z,13.30
2019-05-07T02:22:53.250Z,12.90
2019-05-07T02:25:22.962Z,11.93
2019-05-07T02:27:52.952Z,11.27
2019-05-07T02:30:23.838Z,11.70
2019-05-07T02:32:54.242Z,10.87
2019-05-07T02:35:24.040Z,11.83
2019-05-07T02:37:56.789Z,12.50
2019-05-07T02:40:33.703Z,10.87
2019-05-07T02:43:03.027Z,10.97
2019-05-07T02:45:43.772Z,11.17
2019-05-07T02:48:12.980Z,11.27
2019-05-07T02:50:44.238Z,11.43
2019-05-07T02:53:18.014Z,13.90
2019-05-07T02:55:48.232Z,13.83
2019-05-07T02:58:17.655Z,11.40
2019-05-07T03:00:47.279Z,13.93
2019-05-07T03:03:16.766Z,12.07
2019-05-07T03:05:46.359Z,12.00
2019-05-07T03:08:15.984Z,12.37
2019-05-07T03:10:45.566Z,12.40
2019-05-07T03:13:15.051Z,17.40
2019-05-07T03:15:44.738Z,12.63
2019-05-07T03:18:18.806Z,13.13
2019-05-07T03:20:59.610Z,11.93
2019-05-07T03:23:33.761Z,12.20
2019-05-07T03:26:15.480Z,13.73
2019-05-07T03:28:53.731Z,11.33
2019-05-07T03:31:35.574Z,12.30
2019-05-07T03:34:06.931Z,14.60
2019-05-07T03:36:47.530Z,11.57
2019-05-07T03:39:14.638Z,12.17
2019-05-07T03:41:45.157Z,13.30
2019-05-07T03:44:33.801Z,15.63
2019-05-07T03:47:06.381Z,14.50
2019-05-07T03:49:36.426Z,13.33
2019-05-07T03:52:05.938Z,13.40
2019-05-07T03:54:35.466Z,13.53
2019-05-07T03:57:11.181Z,11.27
2019-05-07T03:59:36.201Z,13.00
2019-05-07T04:02:06.620Z,10.90
2019-05-07T04:04:36.150Z,10.97
2019-05-07T04:07:05.919Z,13.03
2019-05-07T04:09:35.306Z,11.73
2019-05-07T04:12:05.064Z,13.30
2019-05-07T04:14:34.898Z,10.87
2019-05-07T04:17:14.379Z,11.50
2019-05-07T04:19:36.013Z,11.53
2019-05-07T04:22:05.291Z,12.13
2019-05-07T04:24:39.227Z,11.17
2019-05-07T04:27:12.864Z,10.47
2019-05-07T04:29:42.834Z,14.63
2019-05-07T04:32:14.516Z,13.70
2019-05-07T04:34:57.684Z,11.83
2019-05-07T04:37:27.173Z,15.60
2019-05-07T04:39:56.672Z,15.03
2019-05-07T04:42:26.316Z,15.13
2019-05-07T04:44:55.890Z,17.60
2019-05-07T04:47:38.454Z,15.93
2019-05-07T04:49:56.532Z,13.17
2019-05-07T04:52:36.881Z,17.33
2019-05-07T04:55:07.873Z,13.83
2019-05-07T04:57:37.370Z,15.30
2019-05-07T05:00:09.855Z,15.63
2019-05-07T05:02:43.765Z,13.03
2019-05-07T05:05:14.529Z,13.77
2019-05-07T05:07:44.025Z,16.43
2019-05-07T05:10:13.818Z,16.33
2019-05-07T05:12:43.317Z,16.47
2019-05-07T05:15:13.119Z,18.57
2019-05-07T05:17:50.450Z,18.43
2019-05-07T05:20:16.060Z,16.90
2019-05-07T05:22:47.172Z,17.50
2019-05-07T05:25:33.507Z,18.50
2019-05-07T05:28:02.955Z,20.13
2019-05-07T05:30:49.385Z,16.97
2019-05-07T05:33:18.886Z,18.87
2019-05-07T05:35:49.214Z,17.03
2019-05-07T05:38:18.778Z,18.23
2019-05-07T05:40:48.339Z,20.90
2019-05-07T05:43:19.447Z,16.80
2019-05-07T05:45:52.893Z,19.00
2019-05-07T05:48:22.355Z,17.30
2019-05-07T05:50:53.835Z,21.23
2019-05-07T05:53:25.127Z,20.30
2019-05-07T05:55:56.297Z,20.90
2019-05-07T05:58:36.383Z,21.10
2019-05-07T06:01:16.420Z,21.93
2019-05-07T06:03:53.422Z,21.97
2019-05-07T06:06:39.657Z,22.37
2019-05-07T06:09:12.336Z,27.03
2019-05-07T06:11:49.386Z,27.00
2019-05-07T06:14:23.338Z,25.63
2019-05-07T06:17:12.888Z,25.67
2019-05-07T06:19:59.594Z,25.60
2019-05-07T06:22:32.945Z,25.37
2019-05-07T06:25:06.414Z,24.27
2019-05-07T06:27:35.893Z,25.07
2019-05-07T06:30:06.808Z,24.43
2019-05-07T06:32:36.390Z,24.77
2019-05-07T06:35:07.461Z,24.77
2019-05-07T06:37:37.243Z,25.90
2019-05-07T06:40:12.168Z,21.87
2019-05-07T06:42:46.222Z,21.00
2019-05-07T06:45:35.465Z,23.10
2019-05-07T06:48:38.097Z,21.37
2019-05-07T06:50:58.670Z,20.57
2019-05-07T06:53:33.003Z,22.70
2019-05-07T06:56:03.387Z,21.57
2019-05-07T06:58:37.796Z,23.23
2019-05-07T07:01:09.082Z,22.10
2019-05-07T07:03:41.970Z,21.50
2019-05-07T07:06:22.959Z,22.00
2019-05-07T07:08:57.115Z,20.10
2019-05-07T07:11:43.352Z,20.90
2019-05-07T07:14:12.850Z,20.30
2019-05-07T07:16:42.518Z,21.37
2019-05-07T07:19:12.506Z,22.60
2019-05-07T07:21:42.704Z,24.33
2019-05-07T07:24:12.791Z,18.70
2019-05-07T07:26:42.426Z,23.07
2019-05-07T07:29:13.559Z,21.03
2019-05-07T07:31:47.578Z,21.20
2019-05-07T07:34:18.666Z,21.73
2019-05-07T07:37:05.047Z,23.63
2019-05-07T07:39:23.734Z,22.90
2019-05-07T07:41:57.654Z,25.60
2019-05-07T07:44:27.189Z,25.00
2019-05-07T07:46:56.670Z,23.43
2019-05-07T07:49:26.183Z,21.20
2019-05-07T07:51:55.673Z,25.40
2019-05-07T07:54:25.178Z,22.67
2019-05-07T07:56:56.844Z,21.67
2019-05-07T07:59:28.181Z,22.13
2019-05-07T08:02:08.271Z,23.67
2019-05-07T08:04:37.841Z,24.00
2019-05-07T08:07:07.324Z,20.97
2019-05-07T08:09:37.470Z,22.77
2019-05-07T08:12:07.340Z,20.93
2019-05-07T08:14:36.978Z,22.13
2019-05-07T08:17:08.171Z,17.70
2019-05-07T08:19:37.635Z,18.43
2019-05-07T08:22:07.196Z,17.40
2019-05-07T08:24:37.467Z,19.50
2019-05-07T08:27:07.098Z,16.90
2019-05-07T08:29:39.602Z,17.03
2019-05-07T08:32:26.896Z,17.37
2019-05-07T08:35:02.339Z,15.20
2019-05-07T08:37:32.234Z,16.07
2019-05-07T08:40:03.067Z,16.10
2019-05-07T08:42:32.746Z,18.07
2019-05-07T08:45:24.253Z,17.37
2019-05-07T08:47:53.255Z,18.57
2019-05-07T08:50:22.731Z,17.00
2019-05-07T08:52:52.286Z,16.80
2019-05-07T08:55:21.889Z,18.03
2019-05-07T08:57:52.509Z,17.83
2019-05-07T09:00:23.909Z,16.80
2019-05-07T09:02:53.249Z,18.90
2019-05-07T09:05:22.938Z,17.63
2019-05-07T09:07:52.537Z,16.20
2019-05-07T09:10:21.968Z,15.50
2019-05-07T09:12:52.641Z,15.23
2019-05-07T09:15:22.723Z,13.40
2019-05-07T09:17:52.724Z,13.07
2019-05-07T09:20:22.863Z,12.83
2019-05-07T09:22:52.625Z,9.27
2019-05-07T09:25:22.432Z,11.23
2019-05-07T09:27:53.719Z,10.13
2019-05-07T09:30:42.078Z,13.03
2019-05-07T09:33:13.508Z,12.77
2019-05-07T09:35:44.764Z,12.37
2019-05-07T09:38:14.241Z,13.37
2019-05-07T09:40:43.781Z,12.53
2019-05-07T09:43:13.310Z,14.43
2019-05-07T09:45:42.812Z,11.93
2019-05-07T09:48:12.456Z,12.00
2019-05-07T09:50:42.920Z,11.43
2019-05-07T09:53:12.922Z,13.30
2019-05-07T09:55:42.738Z,12.77
2019-05-07T09:58:12.715Z,12.93
2019-05-07T10:00:42.667Z,12.90
2019-05-07T10:03:12.849Z,11.27
2019-05-07T10:05:42.958Z,13.10
2019-05-07T10:08:13.131Z,12.47
2019-05-07T10:10:44.577Z,11.70
2019-05-07T10:13:15.759Z,12.40
2019-05-07T10:15:45.424Z,12.43
2019-05-07T10:18:16.163Z,11.90
2019-05-07T10:20:48.855Z,10.73
2019-05-07T10:23:22.907Z,10.90
2019-05-07T10:25:55.195Z,11.37
2019-05-07T10:28:25.208Z,11.93
2019-05-07T10:30:55.561Z,11.60
2019-05-07T10:33:25.257Z,9.77
2019-05-07T10:35:54.772Z,8.67
2019-05-07T10:38:24.239Z,7.20
2019-05-07T10:40:53.776Z,9.67
2019-05-07T10:43:23.331Z,8.73
2019-05-07T10:45:54.828Z,9.10
2019-05-07T10:48:43.879Z,9.57
2019-05-07T10:51:13.467Z,9.70
2019-05-07T10:53:43.234Z,10.70
2019-05-07T10:56:13.138Z,9.63
2019-05-07T10:58:42.656Z,10.90
2019-05-07T11:01:14.510Z,12.73
2019-05-07T11:03:44.074Z,12.33
2019-05-07T11:06:13.642Z,12.20
2019-05-07T11:08:43.183Z,11.87
2019-05-07T11:11:12.744Z,11.13
2019-05-07T11:13:42.318Z,10.43
2019-05-07T11:16:13.428Z,10.40
2019-05-07T11:18:44.547Z,11.10
2019-05-07T11:21:14.339Z,10.03
2019-05-07T11:23:43.842Z,9.03
2019-05-07T11:26:13.370Z,10.77
2019-05-07T11:28:42.836Z,11.57
2019-05-07T11:31:12.563Z,11.97
2019-05-07T11:33:42.024Z,11.17
2019-05-07T11:36:11.522Z,12.13
2019-05-07T11:38:41.840Z,11.70
2019-05-07T11:41:12.847Z,14.07
2019-05-07T11:43:46.593Z,12.47
2019-05-07T11:46:27.390Z,12.30
2019-05-07T11:49:04.331Z,12.40
2019-05-07T11:51:42.615Z,11.57
2019-05-07T11:54:15.839Z,11.63
2019-05-07T11:56:45.347Z,11.60
2019-05-07T11:59:14.826Z,11.90
2019-05-07T12:01:48.975Z,11.10
2019-05-07T12:04:18.483Z,10.90
2019-05-07T12:06:47.968Z,11.67
2019-05-07T12:09:17.505Z,12.10
2019-05-07T12:11:46.981Z,11.60
2019-05-07T12:14:28.049Z,11.67
2019-05-07T12:16:47.696Z,12.17
2019-05-07T12:19:17.183Z,11.67
2019-05-07T12:21:47.219Z,11.37
2019-05-07T12:24:16.741Z,12.90
2019-05-07T12:26:46.263Z,12.47
2019-05-07T12:29:15.783Z,12.00
2019-05-07T12:31:56.120Z,10.73
2019-05-07T12:34:27.245Z,12.57
2019-05-07T12:36:56.736Z,13.20
2019-05-07T12:39:26.226Z,11.73
2019-05-07T12:41:56.027Z,11.00
2019-05-07T12:44:25.605Z,10.47
2019-05-07T12:46:54.951Z,10.27
2019-05-07T12:49:24.435Z,10.27
2019-05-07T12:51:55.642Z,9.07
2019-05-07T12:54:36.742Z,9.57
2019-05-07T12:57:06.526Z,9.30
2019-05-07T12:59:36.103Z,9.93
2019-05-07T13:02:33.884Z,9.10
2019-05-07T13:04:48.174Z,9.07
2019-05-07T13:07:25.245Z,9.30
2019-05-07T13:09:55.213Z,8.90
2019-05-07T13:12:24.724Z,10.20
2019-05-07T13:14:54.316Z,9.77
2019-05-07T13:17:23.784Z,9.63
2019-05-07T13:19:53.305Z,9.20
2019-05-07T13:22:22.793Z,8.47
2019-05-07T13:24:52.927Z,8.47
2019-05-07T13:27:22.509Z,9.73
2019-05-07T13:29:53.100Z,8.70
2019-05-07T13:32:24.484Z,9.17
2019-05-07T13:34:57.595Z,9.17
2019-05-07T13:37:29.338Z,9.73
2019-05-07T13:40:12.775Z,9.67
2019-05-07T13:42:44.122Z,9.70
2019-05-07T13:45:22.437Z,9.37
2019-05-07T13:47:54.260Z,9.13
2019-05-07T13:50:23.920Z,9.93
2019-05-07T13:52:53.621Z,10.03
2019-05-07T13:55:23.184Z,10.03
2019-05-07T13:57:52.808Z,10.83
2019-05-07T14:00:23.989Z,11.33
2019-05-07T14:02:54.934Z,9.70
2019-05-07T14:05:24.588Z,10.50
2019-05-07T14:07:54.274Z,10.80
2019-05-07T14:10:23.728Z,9.93
2019-05-07T14:12:53.347Z,9.17
2019-05-07T14:15:23.271Z,10.60
2019-05-07T14:17:54.972Z,11.37
2019-05-07T14:20:24.223Z,12.03
2019-05-07T14:22:53.765Z,8.80
2019-05-07T14:25:24.142Z,8.93
2019-05-07T14:27:53.853Z,10.30
2019-05-07T14:30:24.516Z,11.87
2019-05-07T14:33:01.934Z,10.37
2019-05-07T14:35:33.134Z,8.80
2019-05-07T14:38:06.982Z,8.67
2019-05-07T14:40:36.512Z,9.10
2019-05-07T14:43:13.696Z,9.67
2019-05-07T14:45:43.415Z,8.97
2019-05-07T14:48:13.021Z,9.30
2019-05-07T14:50:44.907Z,8.53
2019-05-07T14:53:14.035Z,8.07
2019-05-07T14:55:43.654Z,8.33
2019-05-07T14:58:13.217Z,8.50
2019-05-07T15:00:42.917Z,8.50
2019-05-07T15:03:12.786Z,7.60
2019-05-07T15:05:42.485Z,9.10
2019-05-07T15:08:14.419Z,9.13
2019-05-07T15:10:45.151Z,9.73
2019-05-07T15:13:14.889Z,10.00
2019-05-07T15:15:45.769Z,10.10
2019-05-07T15:18:22.269Z,10.17
2019-05-07T15:20:52.552Z,9.37
2019-05-07T15:23:24.137Z,10.70
2019-05-07T15:25:53.634Z,10.17
2019-05-07T15:28:23.576Z,10.03
2019-05-07T15:31:12.107Z,11.53
2019-05-07T15:33:41.895Z,10.30
2019-05-07T15:36:11.960Z,9.10
2019-05-07T15:38:42.900Z,11.03
2019-05-07T15:41:12.782Z,10.23
2019-05-07T15:43:45.831Z,10.60
2019-05-07T15:46:34.409Z,9.63
2019-05-07T15:48:55.196Z,9.53
2019-05-07T15:51:24.746Z,8.93
2019-05-07T15:53:55.996Z,10.30
2019-05-07T15:56:27.620Z,10.60
2019-05-07T15:58:57.074Z,10.07
2019-05-07T16:01:26.604Z,10.90
2019-05-07T16:03:56.266Z,10.40
2019-05-07T16:06:25.779Z,9.53
2019-05-07T16:08:56.949Z,11.87
2019-05-07T16:11:26.593Z,11.53
2019-05-07T16:14:06.868Z,11.87
2019-05-07T16:16:42.853Z,10.20
2019-05-07T16:19:26.201Z,10.07
2019-05-07T16:21:56.834Z,9.70
2019-05-07T16:24:26.286Z,10.40
2019-05-07T16:26:55.844Z,9.90
2019-05-07T16:29:25.365Z,10.63
2019-05-07T16:31:57.063Z,9.17
2019-05-07T16:34:26.851Z,10.83
2019-05-07T16:36:56.370Z,9.57
2019-05-07T16:39:25.903Z,9.33
2019-05-07T16:41:55.343Z,10.37
2019-05-07T16:44:24.853Z,9.37
2019-05-07T16:46:54.320Z,7.83
2019-05-07T16:49:23.822Z,9.33
2019-05-07T16:51:53.310Z,9.90
2019-05-07T16:54:22.818Z,10.17
2019-05-07T16:56:59.720Z,9.47
2019-05-07T16:59:29.209Z,10.90
2019-05-07T17:02:02.541Z,9.57
2019-05-07T17:04:33.117Z,8.83
2019-05-07T17:07:04.325Z,8.60
2019-05-07T17:09:35.376Z,10.67
2019-05-07T17:12:06.824Z,11.43
2019-05-07T17:14:36.330Z,8.07
2019-05-07T17:17:05.828Z,8.60
2019-05-07T17:19:35.353Z,8.70
2019-05-07T17:22:06.619Z,8.70
2019-05-07T17:24:36.065Z,9.03
2019-05-07T17:27:05.631Z,7.63
2019-05-07T17:29:35.082Z,7.90
2019-05-07T17:32:04.681Z,8.47
2019-05-07T17:34:34.210Z,7.00
2019-05-07T17:37:03.766Z,8.17
2019-05-07T17:39:33.268Z,8.63
2019-05-07T17:42:02.755Z,8.23
2019-05-07T17:44:32.537Z,9.00
2019-05-07T17:47:02.228Z,9.53
2019-05-07T17:49:32.434Z,8.97
2019-05-07T17:52:03.027Z,8.50
2019-05-07T17:54:32.576Z,10.13
2019-05-07T17:57:02.235Z,9.73
2019-05-07T17:59:32.266Z,10.13
2019-05-07T18:02:03.367Z,9.30
2019-05-07T18:04:47.694Z,8.87
2019-05-07T18:07:05.440Z,9.17
2019-05-07T18:09:35.002Z,8.90
2019-05-07T18:12:04.714Z,9.43
2019-05-07T18:14:34.236Z,8.93
2019-05-07T18:17:05.443Z,10.30
2019-05-07T18:19:35.011Z,9.07
2019-05-07T18:22:04.366Z,8.97
2019-05-07T18:24:33.831Z,9.93
2019-05-07T18:27:05.169Z,8.53
2019-05-07T18:29:34.666Z,9.53
2019-05-07T18:32:05.909Z,8.33
2019-05-07T18:34:35.453Z,7.43
2019-05-07T18:37:05.348Z,8.90
2019-05-07T18:39:34.814Z,9.90
2019-05-07T18:42:04.324Z,11.60
2019-05-07T18:44:33.869Z,9.90
2019-05-07T18:47:03.492Z,11.37
2019-05-07T18:49:33.003Z,11.27
2019-05-07T18:52:03.005Z,8.53
2019-05-07T18:54:32.559Z,9.43
2019-05-07T18:57:02.416Z,9.53
2019-05-07T18:59:34.064Z,9.10
2019-05-07T19:02:03.792Z,8.73
2019-05-07T19:04:33.411Z,9.77
2019-05-07T19:07:02.941Z,9.00
2019-05-07T19:09:32.513Z,8.63
2019-05-07T19:12:02.165Z,9.77
2019-05-07T19:14:33.274Z,10.60
2019-05-07T19:17:03.278Z,11.23
2019-05-07T19:19:32.967Z,11.37
2019-05-07T19:22:02.418Z,10.67
2019-05-07T19:24:44.704Z,10.87
2019-05-07T19:27:03.128Z,12.07
2019-05-07T19:29:32.848Z,11.60
2019-05-07T19:32:03.182Z,10.10
2019-05-07T19:34:32.840Z,10.30
2019-05-07T19:37:04.891Z,12.27
2019-05-07T19:39:34.384Z,10.30
2019-05-07T19:42:04.004Z,11.00
2019-05-07T19:44:33.537Z,10.70
2019-05-07T19:47:03.282Z,12.07
2019-05-07T19:49:32.842Z,10.90
2019-05-07T19:52:02.310Z,12.33
2019-05-07T19:54:32.379Z,13.43
2019-05-07T19:57:02.820Z,11.40
2019-05-07T19:59:32.782Z,12.30
2019-05-07T20:02:04.133Z,10.27
2019-05-07T20:04:33.646Z,11.53
2019-05-07T20:07:03.129Z,10.10
2019-05-07T20:09:34.259Z,10.47
2019-05-07T20:12:03.813Z,9.80
2019-05-07T20:14:33.418Z,12.13
2019-05-07T20:17:03.099Z,11.13
2019-05-07T20:19:33.011Z,13.63
2019-05-07T20:22:02.538Z,10.63
2019-05-07T20:24:32.622Z,10.57
2019-05-07T20:27:03.144Z,11.07
2019-05-07T20:29:32.848Z,11.73
2019-05-07T20:32:02.328Z,11.43
2019-05-07T20:34:33.231Z,14.20
2019-05-07T20:37:03.230Z,10.77
2019-05-07T20:39:33.033Z,11.47
2019-05-07T20:42:03.158Z,12.27
2019-05-07T20:44:32.698Z,10.80
2019-05-07T20:47:02.229Z,13.70
2019-05-07T20:49:32.160Z,10.97
2019-05-07T20:52:01.653Z,11.07
2019-05-07T20:54:33.164Z,12.43
2019-05-07T20:57:07.085Z,11.40
2019-05-07T20:59:36.627Z,11.40
2019-05-07T21:02:06.237Z,15.60
2019-05-07T21:04:35.810Z,11.20
2019-05-07T21:07:05.320Z,12.73
2019-05-07T21:09:34.802Z,11.80
2019-05-07T21:12:04.441Z,11.67
2019-05-07T21:14:33.951Z,13.33
2019-05-07T21:17:03.436Z,12.80
2019-05-07T21:19:33.271Z,11.70
2019-05-07T21:22:03.036Z,11.90
2019-05-07T21:24:33.224Z,14.47
2019-05-07T21:27:02.880Z,13.07
2019-05-07T21:29:32.795Z,11.60
2019-05-07T21:32:03.297Z,11.27
2019-05-07T21:34:32.987Z,11.87
2019-05-07T21:37:03.286Z,13.43
2019-05-07T21:39:33.210Z,12.57
2019-05-07T21:42:02.705Z,11.53
2019-05-07T21:44:32.716Z,11.73
2019-05-07T21:47:03.880Z,11.07
2019-05-07T21:49:33.535Z,11.40
2019-05-07T21:52:03.041Z,13.07
2019-05-07T21:54:34.213Z,12.10
2019-05-07T21:57:08.138Z,12.23
2019-05-07T21:59:39.233Z,11.17
2019-05-07T22:02:21.941Z,11.17
2019-05-07T22:04:52.895Z,11.23
2019-05-07T22:07:22.877Z,9.83
2019-05-07T22:09:54.339Z,10.73
2019-05-07T22:12:23.738Z,10.50
2019-05-07T22:14:53.211Z,12.43
2019-05-07T22:17:22.723Z,11.30
2019-05-07T22:19:52.594Z,12.07
2019-05-07T22:22:24.230Z,11.67
2019-05-07T22:24:53.504Z,10.57
2019-05-07T22:27:22.965Z,10.27
2019-05-07T22:29:52.773Z,12.10
2019-05-07T22:32:24.089Z,11.20
2019-05-07T22:34:55.190Z,10.70
2019-05-07T22:37:24.645Z,11.93
2019-05-07T22:39:54.147Z,10.00
2019-05-07T22:42:23.735Z,10.57
2019-05-07T22:44:53.227Z,12.77
2019-05-07T22:47:23.043Z,11.27
2019-05-07T22:49:53.626Z,9.63
2019-05-07T22:52:23.516Z,11.03
2019-05-07T22:54:53.079Z,11.57
2019-05-07T22:57:42.019Z,11.10
2019-05-07T23:00:14.009Z,12.67
2019-05-07T23:02:43.475Z,10.40
2019-05-07T23:05:13.191Z,10.70
2019-05-07T23:07:44.065Z,12.23
2019-05-07T23:10:13.784Z,11.37
2019-05-07T23:12:43.269Z,10.67
2019-05-07T23:15:13.742Z,11.33
2019-05-07T23:17:43.202Z,10.60
2019-05-07T23:20:13.015Z,11.83
2019-05-07T23:22:42.857Z,10.20
2019-05-07T23:25:12.702Z,9.77
2019-05-07T23:27:42.173Z,10.77
2019-05-07T23:30:12.973Z,11.93
2019-05-07T23:32:42.622Z,11.77
2019-05-07T23:35:12.789Z,10.73
2019-05-07T23:37:44.238Z,11.20
2019-05-07T23:40:32.455Z,10.30
2019-05-07T23:43:06.326Z,10.60
2019-05-07T23:45:35.853Z,10.53
2019-05-07T23:48:05.327Z,10.33
2019-05-07T23:50:34.832Z,11.97
2019-05-07T23:53:04.313Z,9.83
2019-05-07T23:55:33.855Z,9.00
2019-05-07T23:58:03.307Z,9.93
